Time;durP1;ratioP1;P1;durP2;ratioP2;P2;SDS_P1;SDS_P2;PMS_P1;PMS_P2;Temp;Humidity;BMP_temperature;BMP_pressure;BME280_temperature;BME280_humidity;BME280_pressure;Samples;Min_cycle;Max_cycle;Signal;HPM_P1;HPM_P2
2021/04/10 00:01:56;;;;;;;10.95;4.65;;;;;;;6.91;42.94;99192.94;114522;1206;103178;-72
2021/04/10 00:04:23;;;;;;;18.20;5.40;;;;;;;6.90;43.13;99193.00;114539;1205;103148;-71
2021/04/10 00:06:50;;;;;;;14.30;5.30;;;;;;;6.88;42.69;99193.11;114458;1206;103076;-71
2021/04/10 00:09:17;;;;;;;13.20;5.10;;;;;;;6.85;42.70;99191.47;114544;1206;103034;-72
2021/04/10 00:11:44;;;;;;;14.53;5.33;;;;;;;6.83;43.10;99184.57;114516;1206;103079;-70
2021/04/10 00:14:13;;;;;;;14.50;5.20;;;;;;;6.82;42.73;99183.70;114460;1206;103085;-72
2021/04/10 00:16:40;;;;;;;12.80;5.10;;;;;;;6.80;42.83;99182.94;114584;1206;103079;-70
2021/04/10 00:19:07;;;;;;;14.43;5.10;;;;;;;6.79;43.00;99183.03;114519;1206;103088;-71
2021/04/10 00:21:34;;;;;;;18.30;6.10;;;;;;;6.77;43.34;99176.98;114519;1206;103366;-71
2021/04/10 00:24:01;;;;;;;17.40;6.60;;;;;;;6.74;43.25;99177.14;114524;1206;103204;-72
2021/04/10 00:26:28;;;;;;;18.17;5.80;;;;;;;6.73;43.03;99172.79;114499;1206;103513;-71
2021/04/10 00:28:55;;;;;;;13.05;5.15;;;;;;;6.70;43.09;99171.19;114593;1206;103095;-71
2021/04/10 00:31:21;;;;;;;17.55;6.05;;;;;;;6.69;42.95;99177.41;114550;1206;103052;-71
2021/04/10 00:33:49;;;;;;;11.65;4.95;;;;;;;6.67;43.00;99173.99;114537;1206;103155;-72
2021/04/10 00:36:16;;;;;;;12.93;5.20;;;;;;;6.63;43.04;99175.09;114493;1206;103143;-70
2021/04/10 00:38:43;;;;;;;13.60;5.30;;;;;;;6.63;42.94;99175.09;114440;1206;103082;-70
2021/04/10 00:41:13;;;;;;;14.85;5.50;;;;;;;6.61;43.02;99179.61;114442;1206;103082;-70
2021/04/10 00:43:40;;;;;;;14.90;5.60;;;;;;;6.57;42.88;99168.34;114523;1206;103091;-71
2021/04/10 00:46:08;;;;;;;15.30;5.50;;;;;;;6.53;42.93;99172.08;114532;1206;103081;-71
2021/04/10 00:48:35;;;;;;;15.70;5.15;;;;;;;6.50;42.90;99172.27;114385;1206;103078;-71
2021/04/10 00:51:03;;;;;;;12.65;5.10;;;;;;;6.47;42.80;99169.80;114523;1206;103082;-69
2021/04/10 00:53:32;;;;;;;17.95;5.30;;;;;;;6.43;42.92;99161.16;114547;1206;103095;-70
2021/04/10 00:56:03;;;;;;;13.70;4.95;;;;;;;6.42;43.18;99166.55;114443;1206;103101;-70
2021/04/10 00:58:32;;;;;;;16.25;4.65;;;;;;;6.42;42.94;99171.83;114395;1206;103171;-71
2021/04/10 01:01:00;;;;;;;11.25;4.45;;;;;;;6.42;42.86;99162.09;114430;1206;103182;-71
2021/04/10 01:03:27;;;;;;;13.70;4.95;;;;;;;6.42;43.01;99162.09;114510;1206;103611;-71
2021/04/10 01:05:54;;;;;;;14.60;5.50;;;;;;;6.43;43.10;99153.23;114471;1206;103085;-72
2021/04/10 01:08:21;;;;;;;14.27;4.97;;;;;;;6.44;42.84;99162.03;114415;1205;103075;-71
2021/04/10 01:10:48;;;;;;;12.40;5.00;;;;;;;6.44;42.93;99157.59;114414;1206;103303;-71
2021/04/10 01:13:46;;;;;;;15.60;5.55;;;;;;;6.46;43.02;99152.23;114481;1206;103094;-70
2021/04/10 01:16:19;;;;;;;12.20;5.10;;;;;;;6.47;42.95;99153.94;114536;1206;103248;-72
2021/04/10 01:18:53;;;;;;;13.75;4.95;;;;;;;6.49;43.05;99162.64;114559;1206;103092;-70
2021/04/10 01:21:39;;;;;;;12.50;4.65;;;;;;;6.50;43.08;99159.06;114511;1206;103066;-71
2021/04/10 01:24:29;;;;;;;12.85;5.20;;;;;;;6.50;43.08;99145.84;114539;1206;103194;-70
2021/04/10 01:27:13;;;;;;;17.30;5.80;;;;;;;6.52;43.04;99150.10;114497;1206;103059;-70
2021/04/10 01:30:05;;;;;;;12.80;4.90;;;;;;;6.53;42.98;99143.88;114444;1205;103201;-69
2021/04/10 01:32:36;;;;;;;17.15;5.30;;;;;;;6.53;42.90;99146.52;114362;1206;103628;-71
2021/04/10 01:35:12;;;;;;;15.70;5.50;;;;;;;6.53;43.11;99149.16;114420;1206;103098;-70
2021/04/10 01:38:00;;;;;;;14.95;5.00;;;;;;;6.55;42.75;99143.78;114538;1206;103054;-70
2021/04/10 01:40:30;;;;;;;14.80;5.20;;;;;;;6.55;43.12;99141.13;114507;1206;103088;-72
2021/04/10 01:42:59;;;;;;;15.10;5.40;;;;;;;6.53;43.03;99141.23;114457;1205;103178;-71
2021/04/10 01:45:27;;;;;;;12.80;4.90;;;;;;;6.52;42.80;99151.91;114546;1206;103050;-70
2021/04/10 01:48:05;;;;;;;13.70;4.70;;;;;;;6.51;42.95;99142.27;114594;1206;103501;-71
2021/04/10 01:50:34;;;;;;;14.80;5.30;;;;;;;6.50;43.00;99145.84;114525;1206;103190;-70
2021/04/10 01:53:03;;;;;;;15.50;5.20;;;;;;;6.47;42.83;99136.28;114497;1206;103079;-69
2021/04/10 01:55:30;;;;;;;14.10;4.90;;;;;;;6.46;42.77;99131.09;114443;1206;103079;-70
2021/04/10 01:57:58;;;;;;;11.30;4.20;;;;;;;6.46;42.74;99125.81;114521;1206;103146;-70
2021/04/10 02:00:29;;;;;;;15.77;5.17;;;;;;;6.46;42.83;99131.09;114447;1204;103260;-70
2021/04/10 02:02:57;;;;;;;14.20;5.17;;;;;;;6.45;42.91;99124.94;114472;1206;103146;-70
2021/04/10 02:05:27;;;;;;;15.87;5.53;;;;;;;6.46;42.84;99120.52;114452;1205;103152;-69
2021/04/10 02:07:54;;;;;;;11.15;5.00;;;;;;;6.45;42.92;99124.94;114563;1206;103158;-71
2021/04/10 02:10:25;;;;;;;14.10;5.30;;;;;;;6.46;42.74;99124.00;114534;1206;103584;-72
2021/04/10 02:12:54;;;;;;;14.40;5.15;;;;;;;6.45;42.81;99119.66;114509;1205;103063;-72
2021/04/10 02:15:23;;;;;;;15.70;5.70;;;;;;;6.43;42.74;99116.24;114563;1206;103052;-72
2021/04/10 02:17:54;;;;;;;13.05;5.05;;;;;;;6.42;42.85;99117.18;114506;1206;103108;-72
2021/04/10 02:20:22;;;;;;;15.77;5.97;;;;;;;6.40;42.91;99111.99;114540;1206;103049;-73
2021/04/10 02:22:52;;;;;;;17.70;5.30;;;;;;;6.39;42.96;99115.58;114510;1205;103053;-71
2021/04/10 02:25:25;;;;;;;13.60;5.20;;;;;;;6.39;42.69;99110.29;114546;1206;103158;-70
2021/04/10 02:27:56;;;;;;;11.27;4.70;;;;;;;6.38;42.57;99108.58;114536;1206;103053;-71
2021/04/10 02:30:24;;;;;;;16.90;5.30;;;;;;;6.37;42.53;99114.80;114522;1206;103102;-68
2021/04/10 02:33:05;;;;;;;17.10;5.95;;;;;;;6.38;42.78;99113.86;114541;1206;103086;-68
2021/04/10 02:35:50;;;;;;;17.00;5.20;;;;;;;6.37;42.68;99109.52;114509;1206;103099;-69
2021/04/10 02:38:20;;;;;;;13.53;5.37;;;;;;;6.35;42.55;99105.23;114546;1205;103172;-70
2021/04/10 02:40:50;;;;;;;;;;;;;;;6.34;42.63;99108.81;114569;1206;103089;-70
2021/04/10 02:43:22;;;;;;;14.10;5.80;;;;;;;6.34;42.59;99100.89;114497;1206;103050;-70
2021/04/10 02:45:52;;;;;;;14.10;5.50;;;;;;;6.31;42.53;99098.45;114536;1206;103149;-69
2021/04/10 02:48:27;;;;;;;14.90;5.50;;;;;;;6.28;42.68;99101.25;114504;1206;103095;-71
2021/04/10 02:50:56;;;;;;;16.40;6.00;;;;;;;6.27;42.51;99107.47;114548;1206;103130;-70
2021/04/10 02:53:25;;;;;;;12.77;4.70;;;;;;;6.26;42.44;99106.60;114560;1206;103174;-72
2021/04/10 02:55:57;;;;;;;12.67;5.13;;;;;;;6.23;42.60;99104.13;114542;1205;103059;-71
2021/04/10 02:58:29;;;;;;;11.70;5.15;;;;;;;6.22;42.59;99102.41;114545;1206;103078;-72
2021/04/10 03:00:57;;;;;;;14.00;4.85;;;;;;;6.20;42.59;99094.59;114496;1206;103046;-71
2021/04/10 03:03:24;;;;;;;13.20;4.90;;;;;;;6.19;42.49;99090.24;114561;1206;103110;-71
2021/04/10 03:05:53;;;;;;;14.80;5.25;;;;;;;6.17;42.63;99089.47;114490;1206;103193;-71
2021/04/10 03:08:23;;;;;;;14.55;5.15;;;;;;;6.14;42.57;99091.41;114504;1206;103057;-71
2021/04/10 03:10:53;;;;;;;14.80;5.55;;;;;;;6.11;42.52;99089.80;114548;1206;103095;-72
2021/04/10 03:13:22;;;;;;;15.85;6.00;;;;;;;6.08;42.75;99093.47;114533;1206;103054;-71
2021/04/10 03:15:53;;;;;;;15.75;5.80;;;;;;;6.06;42.43;99090.06;114530;1206;103084;-70
2021/04/10 03:18:22;;;;;;;15.00;5.25;;;;;;;6.04;42.50;99099.85;114536;1206;103082;-70
2021/04/10 03:20:49;;;;;;;15.50;4.95;;;;;;;6.00;42.47;99098.31;114510;1206;103163;-71
2021/04/10 03:23:16;;;;;;;17.20;6.15;;;;;;;5.99;42.55;99101.84;114539;1206;103081;-72
2021/04/10 03:25:43;;;;;;;14.70;5.35;;;;;;;5.95;42.42;99098.50;114528;1206;103608;-71
2021/04/10 03:28:11;;;;;;;15.30;5.85;;;;;;;5.94;42.53;99098.59;114538;1206;103203;-72
2021/04/10 03:30:40;;;;;;;14.13;5.30;;;;;;;5.92;42.40;99084.63;114514;1206;103047;-71
2021/04/10 03:33:09;;;;;;;17.75;6.10;;;;;;;5.90;42.56;99090.00;114538;1206;103210;-72
2021/04/10 03:35:37;;;;;;;17.10;5.90;;;;;;;5.88;42.46;99105.06;114526;1206;103098;-70
2021/04/10 03:38:05;;;;;;;15.00;5.85;;;;;;;5.87;42.44;99090.16;114508;1206;103098;-72
2021/04/10 03:40:33;;;;;;;14.65;5.55;;;;;;;5.87;42.44;99090.16;114554;1206;103169;-71
2021/04/10 03:42:59;;;;;;;14.55;5.40;;;;;;;5.87;42.58;99090.16;114523;1206;103194;-70
2021/04/10 03:45:26;;;;;;;14.53;5.80;;;;;;;5.89;42.42;99095.34;114487;1206;103134;-71
2021/04/10 03:47:56;;;;;;;18.00;6.40;;;;;;;5.90;42.51;99100.56;114530;1206;103171;-72
2021/04/10 03:50:23;;;;;;;16.60;5.90;;;;;;;5.91;42.33;99094.31;114517;1206;103548;-71
2021/04/10 03:52:51;;;;;;;16.00;5.83;;;;;;;5.93;42.38;99097.73;114509;1206;103195;-70
2021/04/10 03:55:19;;;;;;;14.30;5.23;;;;;;;5.95;42.51;99105.58;114490;1205;103482;-71
2021/04/10 03:57:46;;;;;;;14.05;5.60;;;;;;;5.94;42.48;99101.23;114487;1205;103059;-71
2021/04/10 04:00:14;;;;;;;14.05;5.60;;;;;;;5.94;42.37;99099.44;114414;1206;103088;-71
2021/04/10 04:02:42;;;;;;;14.45;5.30;;;;;;;5.96;42.61;99096.73;114448;1206;103050;-71
2021/04/10 04:05:10;;;;;;;18.05;6.10;;;;;;;5.94;42.24;99096.79;114537;1206;103124;-72
2021/04/10 04:07:37;;;;;;;14.50;5.45;;;;;;;5.95;42.54;99095.02;114544;1206;103095;-70
2021/04/10 04:10:06;;;;;;;12.45;5.50;;;;;;;5.94;42.30;99101.23;114494;1206;103085;-70
2021/04/10 04:12:33;;;;;;;17.47;6.10;;;;;;;5.93;42.43;99096.89;114398;1206;103165;-69
2021/04/10 04:15:01;;;;;;;15.40;6.30;;;;;;;5.93;42.56;99105.64;114428;1206;103162;-69
2021/04/10 04:17:28;;;;;;;16.97;6.73;;;;;;;5.94;42.24;99101.23;114536;1206;103086;-70
2021/04/10 04:19:56;;;;;;;17.00;5.80;;;;;;;5.94;42.31;99095.95;114433;1206;103153;-71
2021/04/10 04:22:23;;;;;;;16.55;6.20;;;;;;;5.93;42.35;99105.64;114512;1206;103062;-69
2021/04/10 04:24:50;;;;;;;18.70;5.95;;;;;;;5.94;42.52;99101.23;114442;1206;103162;-72
2021/04/10 04:27:17;;;;;;;20.20;7.05;;;;;;;5.94;42.39;99104.72;114523;1206;103170;-69
2021/04/10 04:29:44;;;;;;;18.60;6.53;;;;;;;5.96;42.44;99109.93;114552;1206;103099;-71
2021/04/10 04:32:11;;;;;;;17.10;5.80;;;;;;;6.00;42.65;99110.61;114418;1206;103155;-69
2021/04/10 04:34:37;;;;;;;16.90;5.80;;;;;;;6.00;42.46;99103.59;114482;1206;103152;-70
2021/04/10 04:37:06;;;;;;;16.55;5.70;;;;;;;6.01;42.54;99105.30;114391;1206;103168;-70
2021/04/10 04:39:33;;;;;;;19.65;6.50;;;;;;;6.03;42.18;99107.84;114414;1206;103121;-70
2021/04/10 04:42:01;;;;;;;17.20;6.40;;;;;;;6.03;42.52;99108.70;114337;1206;103232;-70
2021/04/10 04:44:28;;;;;;;19.80;6.50;;;;;;;6.04;42.36;99107.77;114346;1206;103099;-72
2021/04/10 04:46:56;;;;;;;16.90;5.95;;;;;;;6.06;42.32;99112.95;114482;1205;103098;-71
2021/04/10 04:49:23;;;;;;;22.00;7.70;;;;;;;6.08;42.31;99116.38;114379;1206;103590;-72
2021/04/10 04:51:54;;;;;;;16.65;6.00;;;;;;;6.10;42.33;99117.14;114386;1206;103053;-70
2021/04/10 04:54:22;;;;;;;16.60;6.25;;;;;;;6.14;42.56;99123.10;115861;1205;101671;-70
2021/04/10 04:56:49;;;;;;;16.00;6.20;;;;;;;6.16;42.28;99114.17;115830;1206;101102;-72
2021/04/10 04:59:17;;;;;;;16.27;6.27;;;;;;;6.22;42.29;99113.85;115800;1206;101190;-70
2021/04/10 05:01:44;;;;;;;15.20;6.30;;;;;;;6.30;42.19;99109.95;115781;1205;101018;-70
2021/04/10 05:04:12;;;;;;;14.00;5.85;;;;;;;6.39;42.53;99112.06;114780;1206;103031;-70
2021/04/10 05:06:40;;;;;;;16.60;6.00;;;;;;;6.48;42.31;99110.72;114380;1206;103091;-69
2021/04/10 05:09:07;;;;;;;18.27;6.20;;;;;;;6.57;42.37;99118.12;114455;1206;103182;-70
2021/04/10 05:11:34;;;;;;;14.65;5.65;;;;;;;6.65;42.41;99115.91;114491;1206;103127;-71
2021/04/10 05:14:02;;;;;;;16.60;6.10;;;;;;;6.72;42.18;99115.57;114469;1206;103127;-70
2021/04/10 05:16:30;;;;;;;14.07;5.97;;;;;;;6.77;42.42;99118.81;114480;1205;103086;-71
2021/04/10 05:18:58;;;;;;;20.05;6.35;;;;;;;6.79;42.25;99120.42;114485;1206;103216;-72
2021/04/10 05:21:26;;;;;;;16.05;5.50;;;;;;;6.83;42.39;99129.89;114477;1206;103088;-72
2021/04/10 05:23:53;;;;;;;15.03;6.00;;;;;;;6.83;42.61;99118.47;114507;1205;103082;-71
2021/04/10 05:26:20;;;;;;;15.50;6.20;;;;;;;6.84;42.22;99121.02;114503;1206;103108;-74
2021/04/10 05:28:47;;;;;;;18.10;6.10;;;;;;;6.83;42.31;99129.05;114485;1206;103168;-71
2021/04/10 05:31:14;;;;;;;16.70;6.70;;;;;;;6.86;42.29;99120.95;114488;1205;103605;-73
2021/04/10 05:33:43;;;;;;;15.15;5.85;;;;;;;6.90;42.05;99134.83;114459;1205;103102;-71
2021/04/10 05:36:11;;;;;;;16.80;6.30;;;;;;;6.93;41.98;99132.02;114472;1206;103025;-73
2021/04/10 05:38:39;;;;;;;18.30;6.50;;;;;;;6.97;41.97;99138.84;114405;1206;103104;-69
2021/04/10 05:41:07;;;;;;;20.00;6.30;;;;;;;7.04;42.22;99134.05;114426;1206;103069;-73
2021/04/10 05:43:36;;;;;;;16.55;6.50;;;;;;;7.14;41.83;99138.71;114447;1206;103057;-71
2021/04/10 05:46:03;;;;;;;13.27;5.20;;;;;;;7.27;41.74;99138.88;114446;1206;103095;-72
2021/04/10 05:48:31;;;;;;;16.60;6.00;;;;;;;7.40;41.97;99138.14;114509;1206;103149;-70
2021/04/10 05:50:58;;;;;;;16.30;6.05;;;;;;;7.51;42.16;99133.08;114498;1206;103158;-71
2021/04/10 05:53:27;;;;;;;16.50;6.30;;;;;;;7.59;41.58;99132.62;114524;1206;103053;-70
2021/04/10 05:55:55;;;;;;;19.10;6.40;;;;;;;7.62;42.30;99135.08;114445;1206;103207;-70
2021/04/10 05:58:22;;;;;;;19.10;6.50;;;;;;;7.65;41.97;99142.01;114440;1206;103047;-70
2021/04/10 06:00:49;;;;;;;15.20;5.90;;;;;;;7.66;41.71;99141.06;114472;1206;103095;-71
2021/04/10 06:03:17;;;;;;;15.60;5.80;;;;;;;7.64;41.96;99137.66;114376;1206;103152;-71
2021/04/10 06:05:46;;;;;;;15.97;5.67;;;;;;;7.66;41.88;99135.77;114414;1206;103095;-70
2021/04/10 06:08:15;;;;;;;18.23;6.20;;;;;;;7.69;41.75;99141.72;114458;1206;103204;-72
2021/04/10 06:10:42;;;;;;;14.35;5.40;;;;;;;7.73;42.01;99137.95;114395;1206;103054;-72
2021/04/10 06:13:10;;;;;;;16.25;5.50;;;;;;;7.77;41.98;99138.61;114428;1206;103134;-70
2021/04/10 06:15:37;;;;;;;15.55;6.00;;;;;;;7.78;42.14;99139.47;114464;1206;103155;-70
2021/04/10 06:18:05;;;;;;;16.15;6.05;;;;;;;7.83;42.10;99130.30;114502;1206;103044;-71
2021/04/10 06:20:32;;;;;;;15.35;5.85;;;;;;;7.88;41.79;99136.17;114494;1206;103152;-71
2021/04/10 06:22:59;;;;;;;16.80;6.30;;;;;;;7.94;42.00;99134.09;114451;1206;103210;-72
2021/04/10 06:25:27;;;;;;;15.00;5.85;;;;;;;8.00;42.08;99131.08;114478;1206;103147;-73
2021/04/10 06:27:54;;;;;;;17.35;6.45;;;;;;;8.05;41.68;99129.84;114495;1206;104121;-71
2021/04/10 06:30:21;;;;;;;14.75;5.95;;;;;;;8.13;41.47;99132.04;114460;1206;103181;-72
2021/04/10 06:32:48;;;;;;;17.70;6.10;;;;;;;8.20;41.71;99135.98;114509;1206;103069;-73
2021/04/10 06:35:15;;;;;;;14.05;6.30;;;;;;;8.25;41.58;99141.02;114428;1206;103120;-72
2021/04/10 06:37:42;;;;;;;16.75;5.65;;;;;;;8.31;41.46;99145.08;114488;1206;103168;-69
2021/04/10 06:40:10;;;;;;;15.73;5.70;;;;;;;8.34;41.65;99153.70;114463;1206;103068;-69
2021/04/10 06:42:37;;;;;;;18.55;6.20;;;;;;;8.41;40.87;99154.17;114506;1206;103089;-72
2021/04/10 06:45:06;;;;;;;13.10;4.90;;;;;;;8.44;41.08;99148.67;114406;1206;103085;-71
2021/04/10 06:47:34;;;;;;;14.10;5.05;;;;;;;8.49;40.70;99149.28;114634;1206;103088;-71
2021/04/10 06:50:07;;;;;;;15.60;5.70;;;;;;;8.54;40.69;99143.67;114438;1205;103053;-72
2021/04/10 06:52:37;;;;;;;15.90;5.30;;;;;;;8.59;41.05;99140.72;114402;1206;103156;-71
2021/04/10 06:55:09;;;;;;;15.70;5.50;;;;;;;8.64;41.00;99147.45;114544;1206;103063;-71
2021/04/10 06:57:45;;;;;;;14.05;5.50;;;;;;;8.70;41.19;99148.85;114541;1206;103137;-70
2021/04/10 07:00:12;;;;;;;15.45;5.10;;;;;;;8.79;41.09;99148.27;114405;1206;103172;-70
2021/04/10 07:02:41;;;;;;;12.90;5.50;;;;;;;8.88;40.75;99160.08;114444;1206;103769;-70
2021/04/10 07:05:08;;;;;;;14.30;5.70;;;;;;;8.94;41.15;99164.99;114466;1206;103076;-69
2021/04/10 07:07:36;;;;;;;15.50;6.50;;;;;;;9.05;40.98;99160.80;114542;1204;103050;-70
2021/04/10 07:10:06;;;;;;;14.20;5.70;;;;;;;9.12;40.81;99158.59;114500;1206;103080;-71
2021/04/10 07:12:36;;;;;;;15.95;5.25;;;;;;;9.18;40.57;99156.38;114486;1206;103191;-70
2021/04/10 07:15:06;;;;;;;12.50;5.20;;;;;;;9.27;41.09;99162.91;114513;1206;103072;-70
2021/04/10 07:17:34;;;;;;;13.85;5.50;;;;;;;9.38;41.12;99164.84;114437;1206;103053;-71
2021/04/10 07:20:24;;;;;;;17.70;5.35;;;;;;;9.48;40.55;99175.69;114426;1206;103053;-71
2021/04/10 07:23:05;;;;;;;15.05;5.25;;;;;;;9.55;40.73;99179.65;114376;1206;103262;-67
2021/04/10 07:25:35;;;;;;;15.30;5.75;;;;;;;9.65;40.47;99180.74;114157;1205;103169;-70
2021/04/10 07:28:22;;;;;;;16.60;5.20;;;;;;;9.80;40.72;99186.82;115838;1205;101644;-71
2021/04/10 07:31:04;;;;;;;17.20;5.70;;;;;;;11.45;39.64;99212.56;115811;1206;101234;-70
2021/04/10 07:33:33;;;;;;;12.55;4.80;;;;;;;13.49;38.91;99178.98;115872;1205;101228;-69
2021/04/10 07:36:02;;;;;;;12.30;5.30;;;;;;;14.87;38.47;99175.28;115833;1205;101577;-70
2021/04/10 07:38:32;;;;;;;13.85;5.20;;;;;;;15.95;39.03;99180.74;114552;1206;103667;-68
2021/04/10 07:41:04;;;;;;;16.80;6.05;;;;;;;17.15;39.68;99175.63;114448;1206;103075;-67
2021/04/10 07:43:37;;;;;;;11.87;5.00;;;;;;;18.45;40.16;99178.72;114494;1206;103079;-70
2021/04/10 07:46:25;;;;;;;10.30;4.70;;;;;;;19.40;40.20;99176.88;114543;1206;103099;-70
2021/04/10 07:49:10;;;;;;;16.00;8.05;;;;;;;20.34;40.00;99175.69;114452;1206;103162;-69
2021/04/10 07:51:56;;;;;;;10.35;5.00;;;;;;;20.72;40.12;99175.91;114385;1206;103092;-69
2021/04/10 07:54:27;;;;;;;14.00;5.50;;;;;;;21.12;40.37;99174.06;114371;1206;103056;-69
2021/04/10 07:57:02;;;;;;;14.37;5.60;;;;;;;21.44;40.13;99167.77;114428;1204;103195;-70
2021/04/10 07:59:45;;;;;;;11.50;5.35;;;;;;;21.85;40.30;99173.75;114440;1206;103200;-70
2021/04/10 08:02:17;;;;;;;11.45;4.80;;;;;;;22.18;40.71;99169.05;114343;1206;103105;-70
2021/04/10 08:05:07;;;;;;;11.60;4.65;;;;;;;22.58;40.95;99167.81;114333;1206;103290;-68
2021/04/10 08:07:35;;;;;;;10.60;5.10;;;;;;;22.89;40.68;99172.17;114390;1205;103596;-69
2021/04/10 08:10:07;;;;;;;8.13;4.27;;;;;;;23.02;40.61;99176.91;114420;1206;103260;-69
2021/04/10 08:12:38;;;;;;;12.40;5.00;;;;;;;23.13;40.41;99169.31;114386;1206;103046;-69
2021/04/10 08:15:08;;;;;;;12.95;5.50;;;;;;;23.32;40.00;99170.60;114419;1206;103133;-69
2021/04/10 08:17:39;;;;;;;9.20;4.55;;;;;;;23.32;40.02;99159.75;114557;1206;103131;-69
2021/04/10 08:20:24;;;;;;;10.00;5.20;;;;;;;23.37;40.50;99165.44;114484;1205;103098;-70
2021/04/10 08:23:18;;;;;;;10.70;4.70;;;;;;;23.64;40.25;99165.70;114491;1206;103108;-68
2021/04/10 08:25:45;;;;;;;11.33;4.73;;;;;;;23.86;40.60;99169.23;114464;1206;103507;-68
2021/04/10 08:28:15;;;;;;;11.10;5.00;;;;;;;24.12;39.80;99158.81;114450;1206;103110;-72
2021/04/10 08:30:59;;;;;;;10.83;4.67;;;;;;;24.03;39.60;99148.08;114416;1206;103319;-67
2021/04/10 08:33:28;;;;;;;13.00;4.80;;;;;;;24.14;39.77;99141.25;114479;1206;103046;-68
2021/04/10 08:35:56;;;;;;;11.00;4.70;;;;;;;24.13;39.58;99141.47;114450;1206;103117;-67
2021/04/10 08:38:24;;;;;;;14.80;5.20;;;;;;;24.22;39.26;99137.56;114473;1206;103163;-68
2021/04/10 08:40:53;;;;;;;12.17;4.70;;;;;;;24.36;39.24;99139.31;114247;1206;103184;-67
2021/04/10 08:43:26;;;;;;;13.10;4.80;;;;;;;24.40;38.89;99142.48;114295;1206;103331;-68
2021/04/10 08:45:55;;;;;;;13.90;5.23;;;;;;;24.16;37.90;99149.23;114342;1206;103198;-68
2021/04/10 08:48:28;;;;;;;10.40;4.60;;;;;;;23.86;37.84;99152.08;114359;1206;103114;-68
2021/04/10 08:51:00;;;;;;;13.73;5.53;;;;;;;23.57;36.44;99156.64;114414;1206;103152;-67
2021/04/10 08:53:32;;;;;;;11.00;4.80;;;;;;;23.40;37.36;99151.48;114604;1206;103124;-67
2021/04/10 08:56:05;;;;;;;;;;;;;;;23.39;36.85;99152.52;114431;1214;103147;-70
2021/04/10 08:58:35;;;;;;;10.45;4.40;;;;;;;23.45;37.60;99156.32;114394;1206;103094;-68
2021/04/10 09:01:15;;;;;;;14.50;5.20;;;;;;;23.68;36.18;99156.13;114218;1206;103061;-69
2021/04/10 09:03:46;;;;;;;9.20;4.60;;;;;;;23.80;35.95;99145.57;114284;1206;103168;-69
2021/04/10 09:06:14;;;;;;;12.10;4.75;;;;;;;23.69;36.16;99159.67;114312;1206;103053;-68
2021/04/10 09:08:42;;;;;;;9.80;4.50;;;;;;;23.71;36.05;99160.31;114387;1205;103175;-67
2021/04/10 09:11:19;;;;;;;9.53;4.37;;;;;;;23.83;35.73;99150.61;114308;1206;103156;-68
2021/04/10 09:13:48;;;;;;;11.10;5.00;;;;;;;23.72;34.57;99161.99;114457;1205;103082;-67
2021/04/10 09:16:40;;;;;;;12.23;4.63;;;;;;;23.26;33.93;99153.20;114418;1205;103226;-73
2021/04/10 09:19:11;;;;;;;13.10;4.70;;;;;;;22.93;34.58;99156.34;114503;1206;103056;-68
2021/04/10 09:21:39;;;;;;;9.70;4.70;;;;;;;23.03;34.31;99156.03;114357;1205;103370;-68
2021/04/10 09:24:39;;;;;;;10.00;4.03;;;;;;;22.89;34.36;99158.61;114365;1206;103156;-69
2021/04/10 09:27:17;;;;;;;10.70;4.40;;;;;;;23.01;34.12;99156.24;114468;1206;103047;-70
2021/04/10 09:29:46;;;;;;;14.70;5.00;;;;;;;23.14;33.61;99141.98;114522;1206;103104;-71
2021/04/10 09:32:30;;;;;;;10.07;4.47;;;;;;;23.40;34.47;99156.91;114466;1206;103134;-72
2021/04/10 09:35:03;;;;;;;14.05;4.75;;;;;;;23.47;34.33;99155.08;114351;1206;102877;-72
2021/04/10 09:37:30;;;;;;;8.95;4.25;;;;;;;23.56;33.95;99160.39;114447;1206;103159;-70
2021/04/10 09:40:18;;;;;;;11.50;4.00;;;;;;;23.60;33.69;99157.11;114326;1206;103043;-72
2021/04/10 09:42:51;;;;;;;13.10;4.65;;;;;;;23.55;33.40;99155.99;114406;1206;103075;-67
2021/04/10 09:45:30;;;;;;;10.20;3.93;;;;;;;23.34;33.05;99144.94;114360;1205;103057;-68
2021/04/10 09:47:57;;;;;;;12.20;4.30;;;;;;;23.47;33.96;99154.26;114246;1206;103114;-71
2021/04/10 09:50:40;;;;;;;7.75;4.05;;;;;;;23.55;33.27;99145.98;114465;1205;103053;-71
2021/04/10 09:53:16;;;;;;;10.40;4.60;;;;;;;23.27;33.07;99144.02;114300;1206;103196;-70
2021/04/10 09:55:49;;;;;;;10.90;4.40;;;;;;;22.82;32.84;99135.16;114488;1206;103056;-68
2021/04/10 09:58:19;;;;;;;11.75;4.55;;;;;;;22.32;32.77;99135.72;114229;1206;103261;-72
2021/04/10 10:00:50;;;;;;;13.60;4.40;;;;;;;21.88;32.58;99148.16;114376;1206;103121;-68
2021/04/10 10:03:21;;;;;;;12.97;4.47;;;;;;;21.29;32.03;99141.52;114441;1205;103092;-69
2021/04/10 10:06:46;;;;;;;11.15;4.10;;;;;;;20.70;32.27;99148.21;114335;1206;103642;-70
2021/04/10 10:09:32;;;;;;;14.00;4.40;;;;;;;20.25;32.08;99142.47;114382;1206;103150;-68
2021/04/10 10:12:02;;;;;;;9.53;3.93;;;;;;;20.02;32.00;99126.97;114377;1206;103519;-71
2021/04/10 10:14:47;;;;;;;11.60;3.75;;;;;;;19.76;31.59;99132.56;115012;1206;103114;-68
2021/04/10 10:17:14;;;;;;;8.10;3.60;;;;;;;19.48;31.68;99135.58;114781;1206;103156;-70
2021/04/10 10:19:46;;;;;;;6.20;3.00;;;;;;;19.41;29.89;99140.81;114287;1206;103078;-70
2021/04/10 10:22:29;;;;;;;12.90;3.50;;;;;;;18.96;30.53;99126.73;114330;1206;103158;-71
2021/04/10 10:25:08;;;;;;;10.15;3.50;;;;;;;18.95;31.21;99125.01;114431;1206;103127;-71
2021/04/10 10:27:42;;;;;;;7.77;3.50;;;;;;;19.02;31.41;99119.86;114430;1206;103152;-77
2021/04/10 10:30:17;;;;;;;12.27;3.90;;;;;;;18.89;31.07;99121.13;114399;1206;103110;-76
2021/04/10 10:32:52;;;;;;;7.80;2.90;;;;;;;18.76;31.13;99126.13;114482;1206;103079;-72
2021/04/10 10:35:19;;;;;;;8.50;3.55;;;;;;;18.72;31.22;99119.41;114447;1206;103156;-78
2021/04/10 10:37:51;;;;;;;11.85;3.75;;;;;;;18.69;31.21;99119.73;114355;1206;103522;-74
2021/04/10 10:40:23;;;;;;;10.23;4.33;;;;;;;18.55;30.56;99123.87;114442;1206;103497;-77
2021/04/10 10:43:06;;;;;;;9.00;3.75;;;;;;;18.20;30.09;99123.89;114269;1206;103092;-71
2021/04/10 10:45:50;;;;;;;8.05;3.80;;;;;;;17.91;30.04;99113.41;114317;1206;103090;-73
2021/04/10 10:48:29;;;;;;;11.10;3.80;;;;;;;17.70;30.09;99120.83;114276;1206;103134;-75
2021/04/10 10:51:07;;;;;;;7.85;3.20;;;;;;;17.64;29.90;99118.77;114353;1206;102538;-73
2021/04/10 10:53:57;;;;;;;7.60;3.20;;;;;;;17.59;30.48;99118.38;114422;1206;103050;-71
2021/04/10 10:56:30;;;;;;;8.23;3.63;;;;;;;17.56;29.25;99113.31;114340;1206;103034;-70
2021/04/10 10:59:05;;;;;;;10.37;3.40;;;;;;;17.45;29.10;99110.89;114461;1205;103538;-73
2021/04/10 11:01:41;;;;;;;7.70;3.60;;;;;;;17.41;30.28;99111.20;114425;1206;103213;-73
2021/04/10 11:04:38;;;;;;;10.40;3.05;;;;;;;17.52;29.68;99106.59;114368;1206;103529;-75
2021/04/10 11:07:08;;;;;;;8.05;3.70;;;;;;;17.38;29.87;99116.88;114417;1206;103240;-71
2021/04/10 11:09:38;;;;;;;10.77;3.57;;;;;;;17.51;29.94;99104.89;114399;1206;103136;-76
2021/04/10 11:12:15;;;;;;;7.60;2.80;;;;;;;17.68;29.91;99111.25;114281;1206;103286;-72
2021/04/10 11:14:46;;;;;;;8.85;3.55;;;;;;;17.85;29.87;99104.13;114434;1206;103698;-72
2021/04/10 11:17:32;;;;;;;6.95;3.20;;;;;;;17.93;29.99;99112.23;114198;1206;103143;-70
2021/04/10 11:20:22;;;;;;;8.60;3.30;;;;;;;18.04;30.44;99110.32;114176;1206;103152;-72
2021/04/10 11:23:08;;;;;;;11.20;4.07;;;;;;;18.13;29.89;99104.85;114399;1206;103170;-67
2021/04/10 11:25:54;;;;;;;12.75;3.70;;;;;;;18.16;29.98;99106.36;114456;1205;103508;-67
2021/04/10 11:28:33;;;;;;;11.30;3.70;;;;;;;18.24;30.50;99116.32;114259;1206;103130;-68
2021/04/10 11:31:09;;;;;;;11.50;4.50;;;;;;;18.24;30.22;99103.72;114220;1206;103178;-71
2021/04/10 11:33:37;;;;;;;10.37;3.60;;;;;;;18.13;30.17;99109.38;114351;1205;103315;-75
2021/04/10 11:36:06;;;;;;;10.50;3.63;;;;;;;17.98;29.89;99096.46;114476;1206;103182;-77
2021/04/10 11:38:33;;;;;;;11.80;3.80;;;;;;;17.71;30.17;99098.31;114349;1206;103155;-78